createdAt,value
2018-02-01T00:01:13.105Z,7.47
2018-02-01T00:03:41.284Z,7.80
2018-02-01T00:06:09.531Z,6.80
2018-02-01T00:08:37.749Z,7.53
2018-02-01T00:11:06.135Z,7.80
2018-02-01T00:13:35.121Z,7.33
2018-02-01T00:16:03.428Z,7.10
2018-02-01T00:18:32.249Z,7.50
2018-02-01T00:21:00.467Z,7.60
2018-02-01T00:23:28.695Z,7.60
2018-02-01T00:25:57.652Z,7.13
2018-02-01T00:28:26.018Z,7.17
2018-02-01T00:30:54.363Z,7.43
2018-02-01T00:33:23.353Z,7.67
2018-02-01T00:35:59.060Z,7.80
2018-02-01T00:38:27.300Z,7.53
2018-02-01T00:40:55.682Z,7.73
2018-02-01T00:43:23.948Z,7.53
2018-02-01T00:45:52.132Z,7.43
2018-02-01T00:48:20.329Z,7.57
2018-02-01T00:50:48.558Z,7.67
2018-02-01T00:53:17.523Z,7.10
2018-02-01T00:55:45.837Z,7.30
2018-02-01T00:58:14.096Z,7.40
2018-02-01T01:00:42.282Z,7.60
2018-02-01T01:03:11.241Z,7.20
2018-02-01T01:05:39.630Z,7.23
2018-02-01T01:08:07.821Z,7.57
2018-02-01T01:10:36.004Z,6.93
2018-02-01T01:13:04.991Z,7.27
2018-02-01T01:15:33.972Z,7.23
2018-02-01T01:18:02.160Z,6.90
2018-02-01T01:20:31.155Z,7.20
2018-02-01T01:23:00.131Z,7.43
2018-02-01T01:25:28.332Z,7.43
2018-02-01T01:27:57.332Z,7.40
2018-02-01T01:30:25.543Z,7.47
2018-02-01T01:32:54.496Z,7.13
2018-02-01T01:35:22.768Z,7.23
2018-02-01T01:37:50.976Z,6.90
2018-02-01T01:40:19.176Z,7.07
2018-02-01T01:42:47.376Z,7.37
2018-02-01T01:45:16.353Z,7.17
2018-02-01T01:47:44.540Z,7.67
2018-02-01T01:50:13.626Z,7.60
2018-02-01T01:52:41.812Z,7.60
2018-02-01T01:55:10.808Z,6.83
2018-02-01T01:57:39.781Z,7.50
2018-02-01T02:00:08.045Z,7.40
2018-02-01T02:02:36.778Z,7.20
2018-02-01T02:05:05.018Z,7.50
2018-02-01T02:07:33.897Z,6.93
2018-02-01T02:10:02.102Z,7.37
2018-02-01T02:12:32.451Z,7.80
2018-02-01T02:15:00.725Z,7.30
2018-02-01T02:17:28.924Z,6.93
2018-02-01T02:19:57.156Z,7.07
2018-02-01T02:22:26.136Z,7.20
2018-02-01T02:24:54.757Z,6.97
2018-02-01T02:27:22.978Z,7.50
2018-02-01T02:29:51.170Z,7.33
2018-02-01T02:32:23.139Z,7.40
2018-02-01T02:34:51.352Z,7.20
2018-02-01T02:37:19.562Z,7.00
2018-02-01T02:39:48.993Z,6.70
2018-02-01T02:42:17.975Z,7.10
2018-02-01T02:44:46.272Z,6.73
2018-02-01T02:47:15.290Z,7.07
2018-02-01T02:49:43.643Z,6.47
2018-02-01T02:52:13.234Z,6.63
2018-02-01T02:54:41.414Z,7.00
2018-02-01T02:57:09.844Z,6.50
2018-02-01T02:59:38.504Z,6.47
2018-02-01T03:02:06.688Z,6.73
2018-02-01T03:04:34.928Z,6.90
2018-02-01T03:07:03.151Z,6.90
2018-02-01T03:09:31.364Z,6.70
2018-02-01T03:12:00.807Z,7.00
2018-02-01T03:14:28.992Z,7.07
2018-02-01T03:16:57.200Z,6.70
2018-02-01T03:19:25.814Z,6.93
2018-02-01T03:21:54.020Z,7.10
2018-02-01T03:24:22.231Z,6.60
2018-02-01T03:26:50.444Z,6.23
2018-02-01T03:29:19.416Z,6.63
2018-02-01T03:31:47.604Z,7.10
2018-02-01T03:34:15.800Z,7.00
2018-02-01T03:39:11.924Z,7.10
2018-02-01T03:41:40.221Z,7.20
2018-02-01T03:44:08.401Z,6.80
2018-02-01T03:46:36.720Z,6.80
2018-02-01T03:49:04.993Z,7.00
2018-02-01T03:51:33.192Z,7.00
2018-02-01T03:54:01.441Z,6.87
2018-02-01T03:56:29.751Z,7.10
2018-02-01T03:58:57.945Z,6.60
2018-02-01T04:01:26.896Z,7.13
2018-02-01T04:03:55.184Z,7.30
2018-02-01T04:06:23.374Z,7.20
2018-02-01T04:08:51.556Z,7.30
2018-02-01T04:11:20.528Z,7.00
2018-02-01T04:13:48.795Z,7.00
2018-02-01T04:16:16.976Z,7.30
2018-02-01T04:18:45.270Z,6.57
2018-02-01T04:21:13.457Z,7.30
2018-02-01T04:23:42.412Z,7.30
2018-02-01T04:26:10.692Z,7.03
2018-02-01T04:28:38.871Z,7.00
2018-02-01T04:31:07.082Z,6.73
2018-02-01T04:33:36.059Z,6.80
2018-02-01T04:36:05.155Z,6.90
2018-02-01T04:38:33.328Z,6.73
2018-02-01T04:41:02.313Z,6.80
2018-02-01T04:43:30.741Z,7.40
2018-02-01T04:45:58.924Z,7.00
2018-02-01T04:48:27.200Z,6.80
2018-02-01T04:50:55.384Z,7.07
2018-02-01T04:53:24.358Z,7.20
2018-02-01T04:55:52.585Z,6.90
2018-02-01T04:58:20.770Z,6.80
2018-02-01T05:00:49.729Z,7.10
2018-02-01T05:03:17.978Z,7.30
2018-02-01T05:05:46.331Z,7.00
2018-02-01T05:08:14.632Z,6.70
2018-02-01T05:10:44.070Z,7.30
2018-02-01T05:13:12.371Z,7.13
2018-02-01T05:15:40.937Z,7.10
2018-02-01T05:18:09.203Z,6.80
2018-02-01T05:20:37.375Z,7.37
2018-02-01T05:23:05.592Z,7.20
2018-02-01T05:25:34.656Z,6.77
2018-02-01T05:28:02.837Z,7.30
2018-02-01T05:30:31.100Z,7.03
2018-02-01T05:33:00.557Z,7.60
2018-02-01T05:35:29.504Z,7.60
2018-02-01T05:37:57.771Z,7.60
2018-02-01T05:40:25.992Z,7.63
2018-02-01T05:42:54.937Z,7.50
2018-02-01T05:45:24.032Z,7.60
2018-02-01T05:47:52.288Z,7.80
2018-02-01T05:50:20.472Z,7.50
2018-02-01T05:52:48.724Z,7.20
2018-02-01T05:55:16.943Z,7.37
2018-02-01T05:57:45.157Z,7.50
2018-02-01T06:00:14.111Z,7.47
2018-02-01T06:02:42.325Z,7.50
2018-02-01T06:05:10.538Z,7.80
2018-02-01T06:07:38.715Z,7.33
2018-02-01T06:10:07.033Z,7.30
2018-02-01T06:12:35.220Z,7.53
2018-02-01T06:15:04.371Z,7.53
2018-02-01T06:17:32.585Z,7.87
2018-02-01T06:20:01.578Z,7.50
2018-02-01T06:22:30.720Z,8.30
2018-02-01T06:24:58.932Z,8.30
2018-02-01T06:27:27.244Z,8.10
2018-02-01T06:29:56.188Z,8.70
2018-02-01T06:32:25.193Z,7.50
2018-02-01T06:34:53.412Z,7.97
2018-02-01T06:37:21.628Z,7.93
2018-02-01T06:39:49.960Z,8.10
2018-02-01T06:42:18.922Z,8.30
2018-02-01T06:44:47.207Z,8.53
2018-02-01T06:47:16.228Z,8.40
2018-02-01T06:49:44.460Z,8.20
2018-02-01T06:52:12.673Z,8.50
2018-02-01T06:54:41.677Z,8.37
2018-02-01T06:57:09.912Z,8.50
2018-02-01T06:59:38.904Z,8.70
2018-02-01T07:02:07.956Z,8.83
2018-02-01T07:04:36.136Z,8.07
2018-02-01T07:07:04.352Z,8.37
2018-02-01T07:09:33.112Z,8.80
2018-02-01T07:12:01.312Z,8.13
2018-02-01T07:14:29.512Z,8.40
2018-02-01T07:16:58.520Z,8.60
2018-02-01T07:19:26.788Z,8.50
2018-02-01T07:21:54.972Z,8.20
2018-02-01T07:24:23.256Z,8.60
2018-02-01T07:26:51.473Z,9.23
2018-02-01T07:29:19.722Z,9.20
2018-02-01T07:31:47.961Z,8.93
2018-02-01T07:34:16.180Z,8.37
2018-02-01T07:36:44.454Z,7.93
2018-02-01T07:39:12.654Z,8.00
2018-02-01T07:41:40.864Z,7.80
2018-02-01T07:44:09.042Z,8.43
2018-02-01T07:46:37.900Z,8.70
2018-02-01T07:49:07.020Z,8.70
2018-02-01T07:51:35.304Z,8.27
2018-02-01T07:54:04.119Z,8.47
2018-02-01T07:56:32.536Z,8.37
2018-02-01T07:59:00.775Z,7.50
2018-02-01T08:01:29.740Z,8.67
2018-02-01T08:03:57.963Z,8.67
2018-02-01T08:06:26.155Z,7.73
2018-02-01T08:08:54.429Z,8.10
2018-02-01T08:11:22.624Z,8.47
2018-02-01T08:13:51.601Z,9.20
2018-02-01T08:16:19.816Z,8.40
2018-02-01T08:18:48.239Z,8.97
2018-02-01T08:21:16.445Z,8.77
2018-02-01T08:23:45.438Z,8.40
2018-02-01T08:26:14.391Z,8.23
2018-02-01T08:28:42.605Z,8.37
2018-02-01T08:31:12.836Z,9.47
2018-02-01T08:33:41.024Z,9.43
2018-02-01T08:36:10.132Z,10.43
2018-02-01T08:38:38.369Z,9.87
2018-02-01T08:41:07.397Z,9.60
2018-02-01T08:43:35.556Z,10.13
2018-02-01T08:46:03.796Z,10.07
2018-02-01T08:48:32.092Z,9.53
2018-02-01T08:51:01.090Z,9.33
2018-02-01T08:53:31.753Z,9.50
2018-02-01T08:55:59.946Z,9.83
2018-02-01T08:58:28.172Z,9.20
2018-02-01T09:00:57.264Z,9.70
2018-02-01T09:03:26.269Z,11.17
2018-02-01T09:05:55.405Z,10.10
2018-02-01T09:08:24.912Z,10.30
2018-02-01T09:10:53.147Z,9.77
2018-02-01T09:13:22.104Z,9.20
2018-02-01T09:15:50.396Z,9.77
2018-02-01T09:18:19.352Z,10.30
2018-02-01T09:20:47.572Z,10.13
2018-02-01T09:23:15.900Z,9.60
2018-02-01T09:25:44.141Z,9.80
2018-02-01T09:28:12.374Z,10.07
2018-02-01T09:30:40.568Z,9.77
2018-02-01T09:33:09.537Z,9.50
2018-02-01T09:35:37.764Z,9.13
2018-02-01T09:38:06.032Z,8.87
2018-02-01T09:40:34.264Z,9.07
2018-02-01T09:43:02.527Z,9.57
2018-02-01T09:45:30.804Z,8.83
2018-02-01T09:47:59.078Z,9.83
2018-02-01T09:50:27.245Z,9.90
2018-02-01T09:52:55.478Z,10.17
2018-02-01T09:55:24.511Z,9.43
2018-02-01T09:57:53.443Z,9.60
2018-02-01T10:00:21.736Z,9.70
2018-02-01T10:02:50.694Z,10.47
2018-02-01T10:05:18.938Z,9.53
2018-02-01T10:07:47.144Z,9.40
2018-02-01T10:10:15.335Z,9.10
2018-02-01T10:12:43.535Z,9.53
2018-02-01T10:15:12.586Z,9.90
2018-02-01T10:17:40.777Z,9.63
2018-02-01T10:20:09.003Z,9.50
2018-02-01T10:22:37.305Z,8.73
2018-02-01T10:25:05.486Z,8.67
2018-02-01T10:27:33.883Z,9.57
2018-02-01T10:30:02.121Z,8.57
2018-02-01T10:32:30.412Z,9.17
2018-02-01T10:34:58.648Z,8.57
2018-02-01T10:40:01.264Z,8.93
2018-02-01T10:42:29.532Z,9.13
2018-02-01T10:44:57.716Z,8.33
2018-02-01T10:47:26.017Z,8.50
2018-02-01T10:49:54.222Z,9.23
2018-02-01T10:52:23.202Z,8.27
2018-02-01T10:54:52.604Z,7.67
2018-02-01T10:57:20.820Z,7.63
2018-02-01T10:59:48.997Z,8.03
2018-02-01T11:02:18.115Z,8.17
2018-02-01T11:04:46.422Z,8.23
2018-02-01T11:07:14.564Z,8.43
2018-02-01T11:09:42.762Z,8.50
2018-02-01T11:12:10.960Z,8.50
2018-02-01T11:14:39.933Z,8.43
2018-02-01T11:17:08.112Z,8.13
2018-02-01T11:19:36.327Z,8.33
2018-02-01T11:22:04.718Z,8.60
2018-02-01T11:24:32.916Z,8.90
2018-02-01T11:27:01.216Z,8.60
2018-02-01T11:29:29.450Z,8.03
2018-02-01T11:31:58.381Z,8.53
2018-02-01T11:34:26.642Z,8.00
2018-02-01T11:36:54.826Z,7.87
2018-02-01T11:39:23.019Z,8.27
2018-02-01T11:41:51.305Z,8.43
2018-02-01T11:44:20.264Z,8.60
2018-02-01T11:46:48.442Z,8.30
2018-02-01T11:49:17.449Z,8.30
2018-02-01T11:51:46.481Z,8.40
2018-02-01T11:54:14.757Z,9.10
2018-02-01T11:56:43.581Z,8.67
2018-02-01T11:59:11.849Z,8.20
2018-02-01T12:01:40.061Z,8.30
2018-02-01T12:04:08.266Z,7.80
2018-02-01T12:06:36.509Z,8.13
2018-02-01T12:09:04.713Z,8.13
2018-02-01T12:11:33.768Z,7.63
2018-02-01T12:14:01.984Z,8.27
2018-02-01T12:16:30.944Z,7.97
2018-02-01T12:18:59.175Z,7.83
2018-02-01T12:21:27.382Z,8.13
2018-02-01T12:23:55.654Z,7.93
2018-02-01T12:26:23.984Z,8.43
2018-02-01T12:28:52.193Z,8.17
2018-02-01T12:31:20.380Z,8.70
2018-02-01T12:33:48.654Z,8.77
2018-02-01T12:36:16.897Z,8.60
2018-02-01T12:38:45.168Z,8.80
2018-02-01T12:41:13.390Z,8.40
2018-02-01T12:43:41.597Z,9.00
2018-02-01T12:46:10.552Z,9.07
2018-02-01T12:48:38.803Z,9.80
2018-02-01T12:51:06.968Z,10.27
2018-02-01T12:53:35.156Z,8.97
2018-02-01T12:56:03.420Z,8.93
2018-02-01T12:58:31.779Z,9.27
2018-02-01T13:01:00.261Z,9.53
2018-02-01T13:03:28.772Z,9.20
2018-02-01T13:05:57.310Z,9.20
2018-02-01T13:08:25.478Z,8.97
2018-02-01T13:10:53.726Z,9.10
2018-02-01T13:13:22.676Z,8.50
2018-02-01T13:15:51.152Z,8.87
2018-02-01T13:18:19.380Z,9.20
2018-02-01T13:20:47.627Z,8.70
2018-02-01T13:23:15.878Z,8.47
2018-02-01T13:25:44.985Z,9.27
2018-02-01T13:28:13.952Z,8.63
2018-02-01T13:30:42.948Z,8.40
2018-02-01T13:33:11.944Z,9.17
2018-02-01T13:35:40.997Z,8.80
2018-02-01T13:38:09.190Z,9.03
2018-02-01T13:40:37.720Z,8.97
2018-02-01T13:43:06.699Z,9.87
2018-02-01T13:45:34.956Z,10.00
2018-02-01T13:48:04.210Z,9.50
2018-02-01T13:50:32.419Z,9.57
2018-02-01T13:53:00.609Z,8.70
2018-02-01T13:55:29.813Z,9.77
2018-02-01T13:57:58.780Z,8.83
2018-02-01T14:00:26.976Z,9.57
2018-02-01T14:02:56.076Z,9.30
2018-02-01T14:05:25.151Z,9.73
2018-02-01T14:07:53.356Z,9.10
2018-02-01T14:10:22.380Z,9.40
2018-02-01T14:12:50.843Z,10.40
2018-02-01T14:15:19.069Z,10.07
2018-02-01T14:17:47.317Z,9.60
2018-02-01T14:20:15.535Z,10.10
2018-02-01T14:22:44.505Z,8.90
2018-02-01T14:25:12.780Z,9.00
2018-02-01T14:27:42.564Z,8.70
2018-02-01T14:30:10.744Z,9.10
2018-02-01T14:32:39.229Z,9.13
2018-02-01T14:35:07.424Z,9.47
2018-02-01T14:37:36.112Z,8.83
2018-02-01T14:40:04.328Z,8.47
2018-02-01T14:42:32.511Z,8.80
2018-02-01T14:45:00.708Z,8.80
2018-02-01T14:47:28.990Z,9.30
2018-02-01T14:49:57.386Z,8.57
2018-02-01T14:52:25.588Z,9.27
2018-02-01T14:54:54.651Z,8.50
2018-02-01T14:57:22.828Z,8.90
2018-02-01T14:59:51.282Z,8.80
2018-02-01T15:02:19.585Z,8.60
2018-02-01T15:04:47.783Z,9.17
2018-02-01T15:07:16.823Z,8.37
2018-02-01T15:09:45.060Z,8.63
2018-02-01T15:12:14.028Z,9.77
2018-02-01T15:14:42.239Z,9.27
2018-02-01T15:17:11.244Z,10.90
2018-02-01T15:19:40.436Z,10.90
2018-02-01T15:22:09.509Z,10.03
2018-02-01T15:24:38.588Z,10.17
2018-02-01T15:27:06.856Z,10.33
2018-02-01T15:29:35.016Z,9.97
2018-02-01T15:32:03.375Z,10.47
2018-02-01T15:34:31.675Z,10.00
2018-02-01T15:36:59.963Z,10.10
2018-02-01T15:39:28.188Z,10.50
2018-02-01T15:41:57.276Z,9.53
2018-02-01T15:44:25.504Z,11.03
2018-02-01T15:46:53.950Z,10.70
2018-02-01T15:49:22.167Z,9.63
2018-02-01T15:51:50.419Z,9.60
2018-02-01T15:54:18.707Z,9.67
2018-02-01T15:56:46.968Z,9.73
2018-02-01T15:59:15.143Z,9.90
2018-02-01T16:01:44.052Z,10.30
2018-02-01T16:04:12.266Z,9.40
2018-02-01T16:06:40.592Z,10.37
2018-02-01T16:09:08.816Z,9.80
2018-02-01T16:11:37.783Z,9.70
2018-02-01T16:14:06.014Z,9.80
2018-02-01T16:16:34.304Z,9.37
2018-02-01T16:19:03.329Z,10.67
2018-02-01T16:21:31.629Z,10.40
2018-02-01T16:24:00.700Z,10.33
2018-02-01T16:26:28.896Z,10.50
2018-02-01T16:28:57.856Z,9.77
2018-02-01T16:31:26.256Z,9.97
2018-02-01T16:33:54.488Z,10.87
2018-02-01T16:36:22.692Z,10.63
2018-02-01T16:38:51.845Z,11.30
2018-02-01T16:41:20.044Z,10.60
2018-02-01T16:43:48.648Z,11.80
2018-02-01T16:46:16.951Z,11.30
2018-02-01T16:48:45.274Z,10.63
2018-02-01T16:51:13.554Z,11.53
2018-02-01T16:53:43.001Z,10.67
2018-02-01T16:56:11.965Z,11.17
2018-02-01T16:58:40.167Z,11.47
2018-02-01T17:01:08.640Z,11.30
2018-02-01T17:03:36.898Z,11.87
2018-02-01T17:06:05.104Z,11.33
2018-02-01T17:08:34.091Z,10.80
2018-02-01T17:11:02.352Z,11.87
2018-02-01T17:13:30.575Z,10.90
2018-02-01T17:15:58.877Z,11.80
2018-02-01T17:18:27.118Z,11.80
2018-02-01T17:20:55.381Z,12.00
2018-02-01T17:23:24.421Z,11.67
2018-02-01T17:25:52.756Z,11.37
2018-02-01T17:28:21.722Z,12.03
2018-02-01T17:30:49.948Z,12.73
2018-02-01T17:33:18.152Z,11.13
2018-02-01T17:35:46.368Z,12.33
2018-02-01T17:38:15.775Z,11.27
2018-02-01T17:40:43.984Z,11.73
2018-02-01T17:43:12.188Z,12.83
2018-02-01T17:45:40.760Z,12.90
2018-02-01T17:48:09.169Z,11.93
2018-02-01T17:50:37.392Z,12.47
2018-02-01T17:53:05.612Z,11.87
2018-02-01T17:55:33.884Z,12.53
2018-02-01T17:58:02.081Z,11.33
2018-02-01T18:00:30.343Z,13.17
2018-02-01T18:02:58.593Z,12.40
2018-02-01T18:05:26.784Z,11.83
2018-02-01T18:07:55.225Z,12.97
2018-02-01T18:10:23.432Z,14.53
2018-02-01T18:12:51.632Z,12.53
2018-02-01T18:15:19.865Z,14.23
2018-02-01T18:17:48.057Z,14.97
2018-02-01T18:20:16.264Z,14.80
2018-02-01T18:22:44.532Z,13.20
2018-02-01T18:25:12.741Z,14.57
2018-02-01T18:27:40.955Z,14.97
2018-02-01T18:30:09.216Z,14.07
2018-02-01T18:32:37.411Z,14.10
2018-02-01T18:35:05.692Z,13.37
2018-02-01T18:37:33.984Z,13.50
2018-02-01T18:40:02.200Z,13.10
2018-02-01T18:42:31.197Z,12.20
2018-02-01T18:45:00.229Z,12.63
2018-02-01T18:47:28.424Z,12.37
2018-02-01T18:49:56.725Z,13.00
2018-02-01T18:52:24.980Z,13.60
2018-02-01T18:54:53.209Z,13.33
2018-02-01T18:57:21.474Z,13.73
2018-02-01T18:59:50.625Z,12.73
2018-02-01T19:02:18.836Z,12.67
2018-02-01T19:04:47.816Z,13.40
2018-02-01T19:07:16.069Z,12.70
2018-02-01T19:09:44.481Z,13.00
2018-02-01T19:12:12.669Z,14.33
2018-02-01T19:14:41.712Z,13.30
2018-02-01T19:17:09.919Z,14.43
2018-02-01T19:19:38.125Z,13.33
2018-02-01T19:22:07.104Z,12.70
2018-02-01T19:24:36.111Z,12.57
2018-02-01T19:27:05.076Z,13.80
2018-02-01T19:29:34.105Z,15.30
2018-02-01T19:32:02.326Z,14.80
2018-02-01T19:34:30.516Z,16.20
2018-02-01T19:36:58.793Z,17.40
2018-02-01T19:39:27.098Z,15.33
2018-02-01T19:41:56.110Z,14.80
2018-02-01T19:44:24.338Z,15.77
2018-02-01T19:46:52.572Z,15.13
2018-02-01T19:49:20.853Z,15.97
2018-02-01T19:51:49.113Z,15.03
2018-02-01T19:54:17.433Z,15.37
2018-02-01T19:56:45.902Z,15.00
2018-02-01T19:59:14.210Z,15.63
2018-02-01T20:01:42.473Z,16.10
2018-02-01T20:04:10.697Z,18.17
2018-02-01T20:06:41.517Z,18.20
2018-02-01T20:09:09.998Z,17.83
2018-02-01T20:11:39.466Z,18.07
2018-02-01T20:14:08.240Z,15.93
2018-02-01T20:16:37.442Z,13.80
2018-02-01T20:19:05.824Z,12.83
2018-02-01T20:21:34.338Z,12.83
2018-02-01T20:24:02.594Z,12.10
2018-02-01T20:26:31.690Z,11.33
2018-02-01T20:29:00.300Z,12.27
2018-02-01T20:31:28.549Z,11.80
2018-02-01T20:33:59.200Z,12.70
2018-02-01T20:36:29.712Z,11.07
2018-02-01T20:38:59.752Z,11.90
2018-02-01T20:41:28.188Z,12.37
2018-02-01T20:43:56.736Z,13.37
2018-02-01T20:46:25.003Z,14.03
2018-02-01T20:48:53.605Z,15.77
2018-02-01T20:51:21.961Z,15.80
2018-02-01T20:53:50.446Z,15.87
2018-02-01T20:56:19.050Z,16.40
2018-02-01T20:58:48.256Z,15.93
2018-02-01T21:01:16.565Z,17.03
2018-02-01T21:03:45.000Z,15.97
2018-02-01T21:06:14.091Z,16.53
2018-02-01T21:08:42.912Z,16.73
2018-02-01T21:11:11.834Z,16.40
2018-02-01T21:13:40.214Z,15.93
2018-02-01T21:16:08.488Z,16.67
2018-02-01T21:18:36.730Z,16.07
2018-02-01T21:21:05.006Z,15.83
2018-02-01T21:23:33.202Z,15.63
2018-02-01T21:26:01.595Z,15.27
2018-02-01T21:28:29.883Z,15.10
2018-02-01T21:30:58.930Z,15.43
2018-02-01T21:33:27.134Z,16.00
2018-02-01T21:35:56.145Z,17.27
2018-02-01T21:38:26.076Z,14.30
2018-02-01T21:40:55.059Z,15.00
2018-02-01T21:43:23.280Z,13.67
2018-02-01T21:45:51.716Z,14.87
2018-02-01T21:48:20.703Z,13.63
2018-02-01T21:50:49.280Z,14.23
2018-02-01T21:53:17.511Z,13.17
2018-02-01T21:55:45.734Z,12.77
2018-02-01T21:58:13.969Z,12.67
2018-02-01T22:00:42.184Z,11.37
2018-02-01T22:03:10.475Z,12.07
2018-02-01T22:05:38.687Z,11.37
2018-02-01T22:08:06.887Z,12.53
2018-02-01T22:10:35.151Z,12.83
2018-02-01T22:13:03.460Z,11.80
2018-02-01T22:15:31.789Z,12.57
2018-02-01T22:18:00.991Z,12.67
2018-02-01T22:20:29.991Z,12.00
2018-02-01T22:22:58.209Z,12.40
2018-02-01T22:25:27.213Z,11.83
2018-02-01T22:27:56.217Z,12.20
2018-02-01T22:30:24.447Z,12.87
2018-02-01T22:32:52.665Z,12.00
2018-02-01T22:35:21.017Z,12.33
2018-02-01T22:37:49.374Z,12.47
2018-02-01T22:40:17.826Z,11.20
2018-02-01T22:42:46.241Z,11.43
2018-02-01T22:45:14.593Z,11.30
2018-02-01T22:47:43.508Z,10.77
2018-02-01T22:50:11.784Z,11.37
2018-02-01T22:52:40.022Z,11.50
2018-02-01T22:55:08.216Z,11.30
2018-02-01T22:57:36.558Z,11.63
2018-02-01T23:00:05.520Z,11.50
2018-02-01T23:02:33.832Z,11.20
2018-02-01T23:05:02.264Z,12.30
2018-02-01T23:07:30.471Z,12.67
2018-02-01T23:09:58.784Z,13.27
2018-02-01T23:12:27.304Z,15.50
2018-02-01T23:14:55.504Z,15.87
2018-02-01T23:17:24.848Z,12.20
2018-02-01T23:19:53.088Z,13.63
2018-02-01T23:22:22.056Z,11.67
2018-02-01T23:24:50.260Z,10.47
2018-02-01T23:27:19.290Z,11.50
2018-02-01T23:29:47.546Z,12.40
2018-02-01T23:32:15.744Z,11.63
2018-02-01T23:34:44.009Z,10.70
2018-02-01T23:37:12.198Z,11.40
2018-02-01T23:39:40.993Z,11.10
2018-02-01T23:42:09.274Z,10.13
2018-02-01T23:44:37.588Z,11.10
2018-02-01T23:47:05.800Z,10.73
2018-02-01T23:49:34.069Z,10.80
2018-02-01T23:52:02.490Z,10.27
2018-02-01T23:54:30.844Z,10.20
2018-02-01T23:56:59.093Z,11.27
2018-02-01T23:59:27.340Z,10.20
